»·PEaware :: FDX258 KSAN-KPHX

FDX258 :: KSAN-KPHX

FLIGHT INFORMATION

Flight Status: Arrived
Operator:
Federal Express
More flights by this operator :: More flights under this callsign
Pilot: Brad M. (22842)
Aircraft: Unknown
(B77F)
More flights by this aircraft type
Origin: KSAN San Diego Intl-Lindbergh
United States
Destination: KPHX Phoenix Sky Harbor Intl
United States
More flights between these airports :: More routes between these airports
Route: +ZZOOO2 IPL J18 BZA HOGGZ HYDRR1
File this flight plan on PilotEdge
Remarks:
Altitude:
(Current/Filed)
37,000ft
Speed:
(Current/Filed)
400kts
Departed: 17-Mar-19 02:51 PM
Arrived: 17-Mar-19 03:39 PM
Distance/Time
Traveled:
263nm/0:48
Distance/Time
To Go:
Arrived

Flight Plot

Page will automatically refresh every two minutes.

Flight plan parsing failed; only flown route is shown


Map Options




Map Legend


Flown Route
Filed Route
Departure Airport
Arrival Airport
Navaid (VOR, NDB)
Fix

Horizontal Profiles

Position Reports

Time Latitude Longitude Heading Altitude Ground
Speed
17-Mar-19 13:58 32.736646 -117.185036 354 28ft 0kts
17-Mar-19 13:59 32.736646 -117.185036 354 28ft 0kts
17-Mar-19 14:00 32.736646 -117.185036 354 28ft 0kts
17-Mar-19 14:01 32.736646 -117.185036 354 28ft 0kts
17-Mar-19 14:02 32.736646 -117.185036 354 28ft 0kts
17-Mar-19 14:03 32.736646 -117.185036 354 28ft 0kts
17-Mar-19 14:04 32.736646 -117.185036 354 28ft 0kts
17-Mar-19 14:05 32.736646 -117.185036 354 28ft 0kts
17-Mar-19 14:06 32.736646 -117.185036 354 28ft 0kts
17-Mar-19 14:07 32.736646 -117.185036 354 28ft 0kts
17-Mar-19 14:08 32.736646 -117.185036 354 28ft 0kts
17-Mar-19 14:09 32.736646 -117.185036 354 28ft 0kts
17-Mar-19 14:10 32.736646 -117.185036 354 28ft 0kts
17-Mar-19 14:11 32.736646 -117.185036 354 28ft 0kts
17-Mar-19 14:12 32.736646 -117.185036 354 28ft 0kts
17-Mar-19 14:13 32.736646 -117.185036 354 28ft 0kts
17-Mar-19 14:14 32.736646 -117.185036 354 28ft 0kts
17-Mar-19 14:15 32.736646 -117.185036 354 28ft 0kts
17-Mar-19 14:16 32.736646 -117.185036 354 28ft 0kts
17-Mar-19 14:17 32.736646 -117.185036 354 28ft 0kts
17-Mar-19 14:18 32.736646 -117.185036 354 28ft 0kts
17-Mar-19 14:19 32.736646 -117.185036 354 28ft 0kts
17-Mar-19 14:20 32.736646 -117.185036 354 28ft 0kts
17-Mar-19 14:21 32.736646 -117.185036 354 28ft 0kts
17-Mar-19 14:22 32.736646 -117.185036 354 28ft 0kts
17-Mar-19 14:23 32.736646 -117.185036 354 28ft 0kts
17-Mar-19 14:24 32.736646 -117.185036 354 28ft 0kts
17-Mar-19 14:25 32.736646 -117.185036 354 28ft 0kts
17-Mar-19 14:26 32.736646 -117.185036 354 28ft 0kts
17-Mar-19 14:27 32.736646 -117.185036 354 28ft 0kts
17-Mar-19 14:28 32.736646 -117.185036 354 28ft 0kts
17-Mar-19 14:29 32.736646 -117.185036 354 28ft 0kts
17-Mar-19 14:30 32.736646 -117.185036 354 28ft 0kts
17-Mar-19 14:31 32.736646 -117.185036 354 28ft 0kts
17-Mar-19 14:32 32.736646 -117.185036 354 28ft 0kts
17-Mar-19 14:33 32.736646 -117.185036 354 28ft 0kts
17-Mar-19 14:34 32.736646 -117.185036 354 28ft 0kts
17-Mar-19 14:35 32.736646 -117.185036 354 28ft 0kts
17-Mar-19 14:36 32.736336 -117.185038 15 28ft 2kts
17-Mar-19 14:37 32.736066 -117.185300 140 28ft 2kts
17-Mar-19 14:38 32.736197 -117.185416 144 28ft 0kts
17-Mar-19 14:39 32.736197 -117.185416 144 28ft 0kts
17-Mar-19 14:40 32.735703 -117.184999 144 28ft 5kts
17-Mar-19 14:41 32.734668 -117.184134 145 28ft 3kts
17-Mar-19 14:42 32.734194 -117.183922 182 28ft 0kts
17-Mar-19 14:43 32.733242 -117.183654 108 28ft 7kts
17-Mar-19 14:44 32.732097 -117.178947 106 28ft 16kts
17-Mar-19 14:45 32.731091 -117.175661 141 28ft 0kts
17-Mar-19 14:46 32.731091 -117.175661 141 28ft 0kts
17-Mar-19 14:47 32.731091 -117.175661 141 28ft 0kts
17-Mar-19 14:48 32.731091 -117.175661 141 28ft 0kts
17-Mar-19 14:49 32.730276 -117.175421 210 28ft 13kts
17-Mar-19 14:50 32.733123 -117.187884 285 28ft 137kts
17-Mar-19 14:51 32.747068 -117.244967 284 2340ft 202kts
17-Mar-19 14:52 32.739068 -117.315173 213 4570ft 261kts
17-Mar-19 14:53 32.678015 -117.290327 127 7970ft 268kts
17-Mar-19 14:54 32.630445 -117.219424 103 11036ft 299kts
17-Mar-19 14:55 32.619273 -117.109945 95 13504ft 367kts
17-Mar-19 14:56 32.607989 -116.983507 95 16922ft 399kts
17-Mar-19 14:57 32.613023 -116.849638 74 20120ft 420kts
17-Mar-19 14:58 32.637477 -116.710706 82 23149ft 442kts
17-Mar-19 14:59 32.650713 -116.562446 82 25866ft 463kts
17-Mar-19 15:00 32.665488 -116.406842 81 28297ft 484kts
17-Mar-19 15:02 32.681472 -116.245048 81 30602ft 498kts
17-Mar-19 15:03 32.696638 -116.081145 81 32822ft 503kts
17-Mar-19 15:04 32.711922 -115.915639 81 34745ft 507kts
17-Mar-19 15:05 32.727645 -115.748417 81 36309ft 512kts
17-Mar-19 15:06 32.742745 -115.579265 80 37030ft 514kts
17-Mar-19 15:07 32.752629 -115.409836 86 37024ft 517kts
17-Mar-19 15:08 32.755513 -115.234792 86 37027ft 540kts
17-Mar-19 15:09 32.759045 -115.056475 86 37024ft 539kts
17-Mar-19 15:10 32.763002 -114.878234 86 37019ft 539kts
17-Mar-19 15:11 32.766259 -114.700420 86 37014ft 539kts
17-Mar-19 15:12 32.769141 -114.523677 87 36505ft 522kts
17-Mar-19 15:13 32.771787 -114.356909 87 35304ft 491kts
17-Mar-19 15:14 32.773621 -114.197928 87 33865ft 472kts
17-Mar-19 15:15 32.776508 -114.044900 83 32432ft 454kts
17-Mar-19 15:16 32.793921 -113.898885 81 31005ft 437kts
17-Mar-19 15:17 32.809322 -113.755412 82 28623ft 443kts
17-Mar-19 15:18 32.858074 -113.629747 49 27313ft 415kts
17-Mar-19 15:19 32.934678 -113.529839 48 25171ft 401kts
17-Mar-19 15:20 33.007211 -113.431663 48 22831ft 388kts
17-Mar-19 15:20 33.065659 -113.352609 48 20976ft 376kts
17-Mar-19 15:21 33.133872 -113.260732 48 18793ft 362kts
17-Mar-19 15:23 33.210229 -113.156930 49 16241ft 350kts
17-Mar-19 15:23 33.260832 -113.083170 63 15145ft 334kts
17-Mar-19 15:24 33.277304 -112.976840 87 13945ft 322kts
17-Mar-19 15:25 33.279229 -112.875478 88 12754ft 286kts
17-Mar-19 15:26 33.293351 -112.786595 69 11687ft 270kts
17-Mar-19 15:27 33.324023 -112.705392 66 10647ft 267kts
17-Mar-19 15:28 33.354693 -112.625117 66 9617ft 262kts
17-Mar-19 15:29 33.384508 -112.546743 66 8609ft 254kts
17-Mar-19 15:30 33.412328 -112.471632 68 7631ft 243kts
17-Mar-19 15:31 33.429277 -112.393930 86 6560ft 244kts
17-Mar-19 15:32 33.428761 -112.314702 89 5446ft 225kts
17-Mar-19 15:33 33.435605 -112.240675 77 4410ft 221kts
17-Mar-19 15:34 33.440980 -112.170280 90 3447ft 188kts
17-Mar-19 15:35 33.440828 -112.115289 89 2573ft 149kts
17-Mar-19 15:36 33.440839 -112.065768 89 1720ft 151kts
17-Mar-19 15:37 33.440850 -112.016834 90 1150ft 130kts
17-Mar-19 15:38 33.439771 -112.004680 178 1148ft 0kts
17-Mar-19 15:39 33.439101 -112.004659 179 1148ft 9kts
17-Mar-19 15:40 33.436397 -112.004665 179 1148ft 8kts
17-Mar-19 15:41 33.433429 -112.004650 180 1148ft 13kts
17-Mar-19 15:42 33.432828 -112.008142 268 1148ft 10kts
17-Mar-19 15:43 33.432835 -112.011341 271 1148ft 9kts
17-Mar-19 15:44 33.432849 -112.016175 270 1148ft 20kts
17-Mar-19 15:45 33.432840 -112.022245 270 1148ft 16kts
17-Mar-19 15:46 33.433529 -112.025963 273 1148ft 14kts
17-Mar-19 15:47 33.433559 -112.029098 269 1148ft 0kts
17-Mar-19 15:48 33.433559 -112.029206 269 1148ft 0kts
17-Mar-19 15:49 33.433559 -112.029206 269 1148ft 0kts
17-Mar-19 15:50 33.433559 -112.029206 269 1148ft 0kts

Navigation Log

Ident Type
Flight plan parsing failed, navigation log unavailable